createdAt,value
2023-05-04T00:01:33.224Z,9.38
2023-05-04T00:04:01.118Z,12.25
2023-05-04T00:06:28.709Z,8.00
2023-05-04T00:08:56.106Z,8.98
2023-05-04T00:11:23.755Z,9.23
2023-05-04T00:13:51.171Z,8.50
2023-05-04T00:16:18.939Z,9.10
2023-05-04T00:18:47.379Z,8.13
2023-05-04T00:21:14.807Z,8.32
2023-05-04T00:23:42.179Z,8.82
2023-05-04T00:26:09.908Z,7.75
2023-05-04T00:28:38.302Z,6.78
2023-05-04T00:31:05.852Z,8.38
2023-05-04T00:33:33.580Z,8.40
2023-05-04T00:36:03.377Z,7.40
2023-05-04T00:38:30.738Z,11.63
2023-05-04T00:40:59.090Z,7.60
2023-05-04T00:43:26.765Z,9.55
2023-05-04T00:45:54.229Z,9.35
2023-05-04T00:48:21.924Z,7.20
2023-05-04T00:50:49.310Z,7.97
2023-05-04T00:53:16.738Z,6.82
2023-05-04T00:55:44.955Z,7.53
2023-05-04T00:58:12.416Z,7.68
2023-05-04T01:00:39.864Z,7.55
2023-05-04T01:03:09.881Z,6.68
2023-05-04T01:05:43.521Z,8.25
2023-05-04T01:08:15.368Z,8.55
2023-05-04T01:10:47.456Z,6.97
2023-05-04T01:13:16.559Z,8.07
2023-05-04T01:15:44.718Z,8.13
2023-05-04T01:18:12.233Z,7.82
2023-05-04T01:20:39.986Z,7.93
2023-05-04T01:23:07.474Z,6.93
2023-05-04T01:25:46.347Z,11.55
2023-05-04T01:28:27.912Z,9.35
2023-05-04T01:30:58.688Z,6.95
2023-05-04T01:33:27.617Z,7.82
2023-05-04T01:35:55.093Z,7.72
2023-05-04T01:38:22.490Z,7.60
2023-05-04T01:40:50.172Z,9.07
2023-05-04T01:43:17.613Z,7.37
2023-05-04T01:45:45.053Z,7.93
2023-05-04T01:48:13.189Z,7.10
2023-05-04T01:50:41.089Z,6.90
2023-05-04T01:53:09.092Z,8.02
2023-05-04T01:55:36.748Z,7.22
2023-05-04T01:58:04.241Z,6.78
2023-05-04T02:00:31.635Z,6.93
2023-05-04T02:03:00.655Z,7.45
2023-05-04T02:05:28.179Z,7.28
2023-05-04T02:07:55.692Z,8.32
2023-05-04T02:10:23.385Z,6.80
2023-05-04T02:12:50.785Z,7.25
2023-05-04T02:15:18.282Z,7.95
2023-05-04T02:17:46.939Z,8.20
2023-05-04T02:20:15.187Z,7.68
2023-05-04T02:22:43.420Z,8.18
2023-05-04T02:25:11.131Z,7.35
2023-05-04T02:27:38.604Z,7.18
2023-05-04T02:30:06.837Z,7.05
2023-05-04T02:32:34.779Z,7.65
2023-05-04T02:35:02.590Z,7.55
2023-05-04T02:37:30.418Z,9.30
2023-05-04T02:39:57.858Z,6.87
2023-05-04T02:42:25.944Z,7.07
2023-05-04T02:44:53.663Z,7.50
2023-05-04T02:47:21.125Z,8.23
2023-05-04T02:49:48.615Z,7.65
2023-05-04T02:52:17.997Z,9.35
2023-05-04T02:54:46.112Z,9.10
2023-05-04T02:57:13.520Z,8.93
2023-05-04T02:59:41.366Z,9.80
2023-05-04T03:02:08.752Z,9.75
2023-05-04T03:04:36.318Z,11.10
2023-05-04T03:07:04.022Z,10.20
2023-05-04T03:09:31.477Z,9.77
2023-05-04T03:11:59.256Z,9.88
2023-05-04T03:14:27.114Z,11.90
2023-05-04T03:16:54.718Z,9.38
2023-05-04T03:19:22.258Z,9.65
2023-05-04T03:21:50.426Z,10.27
2023-05-04T03:24:19.293Z,10.70
2023-05-04T03:26:47.819Z,10.73
2023-05-04T03:29:15.875Z,10.90
2023-05-04T03:31:43.441Z,9.40
2023-05-04T03:34:14.684Z,10.32
2023-05-04T03:36:42.381Z,12.25
2023-05-04T03:39:09.816Z,9.98
2023-05-04T03:41:37.388Z,9.98
2023-05-04T03:44:05.091Z,10.55
2023-05-04T03:46:32.629Z,11.90
2023-05-04T03:49:00.523Z,10.40
2023-05-04T03:51:28.638Z,10.65
2023-05-04T03:53:56.093Z,12.25
2023-05-04T03:56:23.530Z,11.00
2023-05-04T03:58:51.195Z,11.43
2023-05-04T04:01:19.531Z,12.27
2023-05-04T04:03:47.368Z,10.48
2023-05-04T04:06:15.895Z,15.85
2023-05-04T04:08:43.322Z,11.25
2023-05-04T04:11:10.966Z,12.35
2023-05-04T04:13:38.335Z,11.07
2023-05-04T04:16:06.689Z,10.75
2023-05-04T04:18:34.828Z,10.85
2023-05-04T04:21:02.220Z,10.50
2023-05-04T04:23:29.630Z,10.85
2023-05-04T04:25:57.688Z,11.80
2023-05-04T04:28:25.056Z,11.05
2023-05-04T04:30:53.022Z,11.63
2023-05-04T04:33:21.328Z,10.70
2023-05-04T04:35:48.807Z,10.48
2023-05-04T04:38:16.255Z,12.52
2023-05-04T04:40:43.962Z,10.13
2023-05-04T04:43:11.629Z,10.10
2023-05-04T04:45:41.125Z,9.43
2023-05-04T04:48:08.878Z,15.10
2023-05-04T04:50:39.136Z,11.32
2023-05-04T04:53:06.568Z,9.18
2023-05-04T04:55:34.824Z,9.27
2023-05-04T04:58:02.216Z,8.80
2023-05-04T05:00:30.002Z,7.12
2023-05-04T05:02:57.824Z,7.93
2023-05-04T05:05:25.364Z,7.25
2023-05-04T05:07:53.119Z,6.95
2023-05-04T05:10:24.038Z,6.60
2023-05-04T05:12:51.497Z,8.32
2023-05-04T05:15:19.014Z,5.78
2023-05-04T05:17:46.775Z,6.28
2023-05-04T05:20:15.201Z,5.07
2023-05-04T05:22:43.098Z,4.97
2023-05-04T05:25:11.060Z,4.37
2023-05-04T05:27:38.432Z,4.30
2023-05-04T05:30:06.603Z,3.90
2023-05-04T05:32:34.630Z,4.03
2023-05-04T05:35:02.226Z,4.18
2023-05-04T05:37:29.664Z,4.07
2023-05-04T05:39:57.367Z,6.28
2023-05-04T05:42:24.769Z,4.62
2023-05-04T05:44:52.197Z,3.62
2023-05-04T05:47:19.885Z,4.05
2023-05-04T05:49:47.298Z,4.80
2023-05-04T05:52:14.791Z,3.50
2023-05-04T05:54:42.725Z,3.53
2023-05-04T05:57:10.163Z,3.75
2023-05-04T05:59:37.578Z,5.07
2023-05-04T06:02:05.938Z,5.43
2023-05-04T06:04:33.647Z,4.35
2023-05-04T06:07:01.229Z,4.95
2023-05-04T06:09:28.596Z,3.12
2023-05-04T06:11:56.249Z,3.33
2023-05-04T06:14:23.619Z,2.97
2023-05-04T06:16:51.165Z,3.15
2023-05-04T06:19:18.925Z,4.10
2023-05-04T06:21:48.924Z,2.67
2023-05-04T06:24:16.593Z,2.50
2023-05-04T06:26:44.254Z,3.42
2023-05-04T06:29:11.889Z,2.87
2023-05-04T06:31:39.346Z,2.60
2023-05-04T06:34:07.044Z,3.33
2023-05-04T06:36:34.516Z,3.37
2023-05-04T06:39:01.934Z,1.87
2023-05-04T06:41:29.747Z,2.17
2023-05-04T06:43:58.862Z,3.37
2023-05-04T06:46:27.205Z,8.02
2023-05-04T06:48:54.973Z,8.63
2023-05-04T06:51:22.389Z,5.75
2023-05-04T06:53:49.757Z,3.58
2023-05-04T06:56:17.462Z,3.12
2023-05-04T06:58:44.850Z,2.10
2023-05-04T07:01:12.337Z,3.17
2023-05-04T07:03:40.151Z,2.28
2023-05-04T07:06:07.727Z,2.58
2023-05-04T07:08:35.181Z,3.87
2023-05-04T07:11:02.872Z,4.22
2023-05-04T07:13:30.320Z,2.72
2023-05-04T07:15:57.746Z,6.47
2023-05-04T07:18:25.491Z,2.20
2023-05-04T07:20:54.225Z,3.53
2023-05-04T07:23:23.534Z,2.78
2023-05-04T07:25:53.538Z,2.47
2023-05-04T07:28:21.117Z,3.33
2023-05-04T07:30:48.513Z,2.58
2023-05-04T07:33:16.229Z,2.70
2023-05-04T07:35:43.704Z,2.22
2023-05-04T07:38:11.173Z,2.25
2023-05-04T07:40:39.085Z,2.83
2023-05-04T07:43:06.494Z,2.50
2023-05-04T07:45:33.902Z,3.42
2023-05-04T07:48:01.821Z,2.78
2023-05-04T07:50:29.480Z,2.03
2023-05-04T07:52:57.089Z,2.00
2023-05-04T07:55:26.119Z,2.65
2023-05-04T07:57:53.555Z,4.55
2023-05-04T08:00:21.499Z,3.30
2023-05-04T08:02:49.720Z,2.95
2023-05-04T08:05:17.342Z,3.65
2023-05-04T08:07:44.761Z,2.10
2023-05-04T08:10:12.574Z,2.53
2023-05-04T08:12:41.119Z,2.25
2023-05-04T08:15:09.001Z,3.78
2023-05-04T08:17:39.334Z,3.92
2023-05-04T08:20:08.320Z,3.58
2023-05-04T08:22:36.204Z,2.10
2023-05-04T08:25:04.640Z,2.42
2023-05-04T08:27:33.053Z,3.72
2023-05-04T08:30:00.544Z,2.72
2023-05-04T08:32:30.008Z,2.05
2023-05-04T08:34:59.198Z,3.28
2023-05-04T08:37:26.855Z,2.30
2023-05-04T08:39:54.687Z,2.55
2023-05-04T08:42:32.637Z,3.42
2023-05-04T08:45:00.836Z,2.15
2023-05-04T08:47:31.610Z,2.47
2023-05-04T08:49:59.083Z,2.75
2023-05-04T08:52:27.586Z,2.30
2023-05-04T08:54:57.058Z,2.20
2023-05-04T08:57:25.515Z,3.33
2023-05-04T08:59:54.707Z,3.10
2023-05-04T09:02:24.027Z,3.28
2023-05-04T09:04:52.699Z,5.43
2023-05-04T09:07:21.667Z,4.37
2023-05-04T09:09:50.963Z,4.25
2023-05-04T09:12:19.253Z,4.03
2023-05-04T09:14:47.394Z,3.75
2023-05-04T09:17:25.700Z,4.00
2023-05-04T09:20:01.664Z,2.87
2023-05-04T09:22:29.892Z,2.85
2023-05-04T09:25:11.490Z,2.83
2023-05-04T09:27:41.441Z,3.40
2023-05-04T09:30:09.596Z,5.53
2023-05-04T09:32:46.375Z,5.68
2023-05-04T09:35:29.333Z,3.03
2023-05-04T09:37:59.749Z,7.35
2023-05-04T09:40:41.325Z,3.58
2023-05-04T09:43:09.386Z,3.70
2023-05-04T09:45:41.647Z,3.20
2023-05-04T09:48:17.543Z,3.40
2023-05-04T09:50:55.326Z,2.65
2023-05-04T09:53:30.366Z,3.08
2023-05-04T09:56:04.456Z,5.97
2023-05-04T09:58:33.628Z,2.42
2023-05-04T10:01:01.834Z,7.80
2023-05-04T10:03:29.990Z,8.00
2023-05-04T10:05:59.442Z,5.80
2023-05-04T10:08:32.044Z,5.82
2023-05-04T10:10:59.902Z,7.80
2023-05-04T10:13:28.076Z,5.50
2023-05-04T10:16:05.959Z,6.57
2023-05-04T10:18:50.129Z,6.70
2023-05-04T10:21:26.315Z,4.62
2023-05-04T10:24:12.878Z,3.97
2023-05-04T10:27:00.992Z,4.68
2023-05-04T10:29:30.312Z,6.28
2023-05-04T10:31:58.726Z,5.43
2023-05-04T10:34:30.745Z,6.97
2023-05-04T10:37:00.115Z,3.12
2023-05-04T10:39:30.236Z,3.90
2023-05-04T10:42:02.901Z,5.00
2023-05-04T10:44:49.751Z,3.83
2023-05-04T10:47:33.263Z,5.35
2023-05-04T10:50:08.093Z,5.90
2023-05-04T10:52:48.703Z,4.05
2023-05-04T10:55:16.985Z,4.68
2023-05-04T10:57:51.864Z,3.55
2023-05-04T11:00:19.929Z,4.95
2023-05-04T11:02:50.717Z,4.18
2023-05-04T11:05:20.206Z,6.45
2023-05-04T11:07:53.000Z,5.43
2023-05-04T11:10:25.847Z,3.03
2023-05-04T11:12:55.649Z,3.60
2023-05-04T11:15:23.246Z,3.05
2023-05-04T11:17:52.471Z,2.83
2023-05-04T11:20:27.132Z,6.07
2023-05-04T11:22:54.916Z,3.00
2023-05-04T11:25:30.366Z,7.05
2023-05-04T11:28:01.495Z,5.60
2023-05-04T11:30:35.863Z,4.90
2023-05-04T11:33:05.235Z,6.40
2023-05-04T11:35:33.172Z,4.68
2023-05-04T11:38:00.956Z,4.55
2023-05-04T11:40:28.400Z,4.32
2023-05-04T11:42:57.665Z,8.80
2023-05-04T11:45:28.586Z,7.28
2023-05-04T11:47:57.555Z,7.57
2023-05-04T11:50:26.863Z,6.85
2023-05-04T11:53:06.264Z,8.45
2023-05-04T11:55:34.830Z,7.15
2023-05-04T11:58:04.012Z,5.82
2023-05-04T12:00:41.735Z,5.18
2023-05-04T12:03:14.672Z,9.13
2023-05-04T12:05:51.047Z,6.37
2023-05-04T12:08:42.374Z,9.57
2023-05-04T12:11:20.442Z,5.35
2023-05-04T12:13:49.353Z,6.32
2023-05-04T12:16:19.126Z,10.05
2023-05-04T12:18:47.746Z,5.93
2023-05-04T12:21:19.173Z,7.12
2023-05-04T12:23:47.416Z,6.93
2023-05-04T12:26:17.409Z,7.20
2023-05-04T12:28:47.187Z,10.20
2023-05-04T12:31:15.056Z,6.72
2023-05-04T12:33:42.491Z,6.82
2023-05-04T12:36:10.332Z,6.87
2023-05-04T12:38:39.325Z,6.37
2023-05-04T12:41:10.726Z,6.43
2023-05-04T12:43:38.638Z,5.07
2023-05-04T12:46:06.197Z,6.80
2023-05-04T12:48:34.249Z,5.50
2023-05-04T12:51:04.106Z,5.37
2023-05-04T12:53:32.373Z,8.15
2023-05-04T12:56:00.732Z,5.05
2023-05-04T12:58:28.488Z,5.78
2023-05-04T13:00:57.777Z,6.05
2023-05-04T13:03:25.429Z,5.40
2023-05-04T13:05:53.485Z,4.55
2023-05-04T13:08:20.965Z,5.55
2023-05-04T13:10:48.420Z,5.47
2023-05-04T13:13:17.850Z,4.90
2023-05-04T13:15:46.036Z,6.15
2023-05-04T13:18:13.610Z,6.18
2023-05-04T13:20:41.255Z,6.18
2023-05-04T13:23:08.687Z,6.30
2023-05-04T13:25:36.336Z,7.37
2023-05-04T13:28:04.062Z,6.25
2023-05-04T13:30:31.428Z,8.10
2023-05-04T13:32:58.909Z,5.65
2023-05-04T13:35:26.753Z,6.43
2023-05-04T13:37:54.297Z,5.40
2023-05-04T13:40:21.720Z,6.20
2023-05-04T13:42:49.502Z,7.90
2023-05-04T13:45:17.514Z,6.87
2023-05-04T13:47:45.268Z,7.03
2023-05-04T13:50:13.686Z,6.85
2023-05-04T13:52:41.069Z,8.90
2023-05-04T13:55:09.349Z,9.07
2023-05-04T13:57:37.072Z,7.80
2023-05-04T14:00:08.419Z,5.78
2023-05-04T14:02:38.119Z,5.65
2023-05-04T14:05:07.544Z,6.62
2023-05-04T14:07:35.374Z,5.90
2023-05-04T14:10:03.136Z,6.10
2023-05-04T14:12:31.859Z,5.32
2023-05-04T14:14:59.613Z,6.68
2023-05-04T14:17:27.129Z,6.10
2023-05-04T14:19:54.791Z,5.68
2023-05-04T14:22:22.142Z,6.82
2023-05-04T14:24:50.122Z,7.85
2023-05-04T14:27:17.826Z,7.87
2023-05-04T14:29:47.185Z,8.60
2023-05-04T14:32:15.527Z,6.82
2023-05-04T14:34:43.248Z,5.82
2023-05-04T14:37:10.775Z,7.45
2023-05-04T14:39:39.454Z,4.62
2023-05-04T14:42:07.124Z,5.60
2023-05-04T14:44:34.675Z,7.47
2023-05-04T14:47:04.869Z,6.10
2023-05-04T14:49:37.362Z,5.03
2023-05-04T14:52:05.562Z,5.95
2023-05-04T14:54:32.989Z,5.30
2023-05-04T14:57:00.637Z,4.97
2023-05-04T14:59:28.292Z,5.32
2023-05-04T15:01:57.528Z,9.30
2023-05-04T15:04:25.385Z,6.45
2023-05-04T15:06:52.850Z,8.75
2023-05-04T15:09:20.598Z,5.70
2023-05-04T15:11:48.643Z,8.98
2023-05-04T15:14:16.355Z,6.25
2023-05-04T15:16:43.894Z,5.03
2023-05-04T15:19:11.780Z,4.95
2023-05-04T15:21:39.166Z,4.70
2023-05-04T15:24:07.325Z,5.75
2023-05-04T15:26:35.820Z,4.20
2023-05-04T15:29:04.008Z,5.78
2023-05-04T15:31:31.665Z,5.53
2023-05-04T15:34:00.708Z,4.55
2023-05-04T15:36:28.112Z,4.22
2023-05-04T15:38:55.539Z,5.07
2023-05-04T15:41:23.654Z,4.82
2023-05-04T15:43:51.108Z,7.20
2023-05-04T15:46:18.562Z,7.00
2023-05-04T15:48:46.306Z,6.03
2023-05-04T15:51:13.864Z,5.47
2023-05-04T15:53:41.272Z,6.62
2023-05-04T15:56:09.121Z,5.05
2023-05-04T15:58:36.532Z,4.35
2023-05-04T16:01:04.318Z,3.90
2023-05-04T16:03:33.268Z,4.43
2023-05-04T16:06:01.614Z,7.22
2023-05-04T16:08:29.168Z,4.87
2023-05-04T16:10:57.982Z,5.95
2023-05-04T16:13:25.420Z,4.43
2023-05-04T16:15:53.425Z,5.70
2023-05-04T16:18:21.141Z,6.53
2023-05-04T16:20:48.546Z,6.60
2023-05-04T16:23:17.336Z,5.15
2023-05-04T16:25:45.101Z,4.85
2023-05-04T16:28:12.619Z,5.28
2023-05-04T16:30:42.473Z,4.18
2023-05-04T16:33:10.230Z,5.03
2023-05-04T16:35:37.820Z,5.57
2023-05-04T16:38:05.209Z,4.47
2023-05-04T16:40:32.960Z,4.82
2023-05-04T16:43:00.641Z,4.45
2023-05-04T16:45:31.704Z,6.62
2023-05-04T16:47:59.605Z,4.10
2023-05-04T16:50:27.017Z,6.00
2023-05-04T16:52:54.442Z,4.25
2023-05-04T16:55:22.156Z,4.82
2023-05-04T16:57:50.083Z,4.22
2023-05-04T17:00:18.410Z,5.15
2023-05-04T17:02:46.118Z,5.20
2023-05-04T17:05:13.672Z,5.00
2023-05-04T17:07:43.248Z,5.40
2023-05-04T17:10:11.387Z,5.25
2023-05-04T17:12:39.103Z,4.65
2023-05-04T17:15:07.352Z,4.43
2023-05-04T17:17:35.320Z,3.50
2023-05-04T17:20:03.739Z,8.18
2023-05-04T17:22:31.465Z,4.53
2023-05-04T17:24:59.199Z,4.82
2023-05-04T17:27:26.611Z,9.07
2023-05-04T17:29:54.223Z,5.85
2023-05-04T17:32:22.000Z,5.70
2023-05-04T17:34:49.440Z,6.32
2023-05-04T17:37:16.824Z,7.43
2023-05-04T17:39:46.788Z,4.78
2023-05-04T17:42:15.833Z,5.10
2023-05-04T17:44:43.289Z,5.72
2023-05-04T17:47:11.014Z,6.93
2023-05-04T17:49:38.611Z,5.43
2023-05-04T17:52:06.088Z,7.78
2023-05-04T17:54:33.779Z,9.13
2023-05-04T17:57:01.212Z,11.73
2023-05-04T17:59:28.902Z,5.65
2023-05-04T18:01:56.687Z,5.53
2023-05-04T18:04:24.443Z,6.95
2023-05-04T18:06:51.837Z,8.02
2023-05-04T18:09:19.803Z,6.07
2023-05-04T18:11:47.495Z,5.50
2023-05-04T18:14:14.944Z,5.68
2023-05-04T18:16:42.561Z,7.05
2023-05-04T18:19:10.346Z,6.68
2023-05-04T18:21:38.057Z,5.55
2023-05-04T18:24:05.778Z,5.55
2023-05-04T18:26:33.437Z,7.03
2023-05-04T18:29:11.137Z,11.63
2023-05-04T18:31:45.875Z,7.35
2023-05-04T18:34:13.433Z,6.78
2023-05-04T18:36:40.898Z,5.80
2023-05-04T18:39:08.758Z,6.12
2023-05-04T18:41:36.239Z,8.73
2023-05-04T18:44:15.370Z,7.28
2023-05-04T18:46:42.836Z,8.02
2023-05-04T18:49:10.498Z,6.75
2023-05-04T18:51:41.541Z,7.75
2023-05-04T18:54:09.200Z,5.82
2023-05-04T18:56:36.770Z,7.57
2023-05-04T18:59:06.085Z,6.07
2023-05-04T19:01:33.665Z,6.28
2023-05-04T19:04:01.536Z,6.32
2023-05-04T19:06:29.099Z,6.78
2023-05-04T19:08:56.498Z,7.15
2023-05-04T19:11:24.246Z,9.55
2023-05-04T19:13:51.841Z,9.63
2023-05-04T19:16:19.431Z,10.18
2023-05-04T19:18:47.159Z,14.57
2023-05-04T19:21:14.584Z,18.60
2023-05-04T19:23:42.074Z,16.90
2023-05-04T19:26:09.802Z,14.63
2023-05-04T19:28:37.372Z,15.35
2023-05-04T19:31:04.813Z,9.05
2023-05-04T19:33:44.614Z,10.18
2023-05-04T19:36:17.184Z,7.37
2023-05-04T19:38:45.105Z,15.65
2023-05-04T19:41:13.883Z,6.68
2023-05-04T19:43:42.555Z,9.13
2023-05-04T19:46:10.425Z,13.55
2023-05-04T19:48:38.858Z,9.45
2023-05-04T19:51:06.483Z,10.50
2023-05-04T19:53:34.263Z,11.50
2023-05-04T19:56:01.680Z,12.40
2023-05-04T19:58:30.787Z,13.07
2023-05-04T20:00:58.567Z,10.82
2023-05-04T20:03:26.425Z,12.55
2023-05-04T20:05:54.188Z,11.57
2023-05-04T20:08:21.713Z,16.37
2023-05-04T20:10:49.608Z,10.63
2023-05-04T20:13:17.091Z,12.32
2023-05-04T20:15:45.146Z,9.90
2023-05-04T20:18:13.105Z,9.00
2023-05-04T20:20:40.936Z,7.85
2023-05-04T20:23:08.599Z,6.97
2023-05-04T20:25:36.584Z,9.02
2023-05-04T20:28:04.126Z,7.37
2023-05-04T20:30:31.526Z,8.55
2023-05-04T20:32:59.253Z,8.95
2023-05-04T20:35:26.776Z,9.07
2023-05-04T20:37:54.370Z,9.02
2023-05-04T20:40:22.423Z,7.57
2023-05-04T20:42:49.818Z,7.62
2023-05-04T20:45:17.250Z,7.85
2023-05-04T20:47:45.044Z,8.50
2023-05-04T20:50:12.627Z,9.25
2023-05-04T20:52:40.184Z,8.23
2023-05-04T20:55:08.303Z,7.57
2023-05-04T20:57:35.981Z,7.40
2023-05-04T21:00:03.708Z,9.00
2023-05-04T21:02:33.114Z,6.62
2023-05-04T21:05:00.927Z,8.88
2023-05-04T21:07:28.393Z,10.35
2023-05-04T21:09:58.948Z,9.95
2023-05-04T21:12:26.507Z,9.18
2023-05-04T21:14:53.933Z,7.78
2023-05-04T21:17:21.650Z,8.52
2023-05-04T21:19:49.006Z,7.03
2023-05-04T21:22:17.618Z,7.53
2023-05-04T21:24:46.597Z,9.93
2023-05-04T21:27:14.091Z,9.63
2023-05-04T21:29:41.558Z,8.43
2023-05-04T21:32:09.281Z,10.27
2023-05-04T21:34:36.690Z,6.93
2023-05-04T21:37:04.269Z,7.45
2023-05-04T21:39:31.978Z,7.72
2023-05-04T21:41:59.481Z,7.93
2023-05-04T21:44:27.163Z,8.77
2023-05-04T21:46:55.831Z,8.10
2023-05-04T21:49:23.269Z,8.73
2023-05-04T21:51:50.626Z,7.87
2023-05-04T21:54:18.273Z,8.15
2023-05-04T21:56:45.727Z,7.75
2023-05-04T21:59:13.166Z,7.07
2023-05-04T22:01:42.353Z,9.02
2023-05-04T22:04:10.368Z,8.18
2023-05-04T22:06:38.096Z,9.07
2023-05-04T22:09:05.455Z,7.72
2023-05-04T22:11:33.179Z,9.70
2023-05-04T22:14:00.689Z,10.20
2023-05-04T22:16:28.125Z,8.95
2023-05-04T22:18:55.833Z,8.75
2023-05-04T22:21:23.231Z,8.75
2023-05-04T22:23:51.091Z,9.32
2023-05-04T22:26:18.960Z,7.87
2023-05-04T22:28:46.354Z,8.80
2023-05-04T22:31:13.861Z,8.40
2023-05-04T22:33:41.711Z,9.02
2023-05-04T22:36:09.263Z,8.00
2023-05-04T22:38:36.629Z,9.75
2023-05-04T22:41:04.463Z,7.82
2023-05-04T22:43:31.876Z,4.55
2023-05-04T22:45:59.296Z,5.28
2023-05-04T22:48:26.967Z,12.65
2023-05-04T22:50:55.006Z,4.95
2023-05-04T22:53:22.627Z,5.87
2023-05-04T22:55:50.330Z,4.55
2023-05-04T22:58:17.819Z,5.70
2023-05-04T23:00:47.892Z,5.32
2023-05-04T23:03:15.666Z,4.87
2023-05-04T23:05:43.163Z,5.05
2023-05-04T23:08:10.778Z,6.57
2023-05-04T23:10:38.434Z,6.50
2023-05-04T23:13:05.907Z,4.25
2023-05-04T23:15:33.396Z,8.48
2023-05-04T23:18:01.065Z,5.45
2023-05-04T23:20:28.531Z,3.78
2023-05-04T23:22:55.876Z,3.30
2023-05-04T23:25:23.566Z,5.25
2023-05-04T23:27:50.975Z,5.62
2023-05-04T23:30:18.679Z,8.40
2023-05-04T23:32:46.418Z,4.03
2023-05-04T23:35:13.840Z,4.10
2023-05-04T23:37:41.235Z,3.60
2023-05-04T23:40:09.576Z,4.40
2023-05-04T23:42:37.556Z,4.15
2023-05-04T23:45:05.508Z,3.90
2023-05-04T23:47:33.175Z,4.78
2023-05-04T23:50:01.159Z,3.08
2023-05-04T23:52:28.544Z,4.87
2023-05-04T23:54:56.230Z,3.37
2023-05-04T23:57:23.665Z,2.97
2023-05-04T23:59:52.378Z,4.43
